.
Local / CommonContents

Fort Wayne - NE Ind.
U N D E R   C O N S T R U C T I O N

Northern Indiana (IWX) Radar

Latest IWX NEXRAD
Base Reflectivity



Latest IWX NEXRAD
Base Velocity

Indiana-Ohio Visible Satellite

For infrared and water vapor imagery, see Great Lakes - Midwest.

Current Conditions

Recent report from the Fort Wayne International Airport

Jul 19, 2018 - 12:54 AM EDT / 2018.07.19 0454 UTC


The skies are mostly cloudy. The temperature is 68.0 F (20.0 C) and the dew point is 59.0 F (15.0 C), giving a relative humidity of 72%. The barometric pressure is 30.06 in. Hg (1017 hPa). The wind is Calm, and the visibility is 10 mile(s).

KFWA 190454Z 00000KT 10SM FEW065 BKN280 20/15 A3006 RMK AO2 SLP173 T02000150 402890139
CoCoRaHS
IN-AL-39
A2 Web Hosting
Creative Commons License
GoDaddy
Look for:

loaded 2018-07-19 01:32:56 • last modified 2015-05-28 14:58:18
Privacy PolicyDisclaimer
• wx.awcolley.com is powered by PmWiki v.2002016 •
• all content (unless otherwise noted) © 2018 A W Colley